sensor_id;sensor_type;location;lat;lon;timestamp;temperature;humidity
64951;DHT22;51482;47.014;7.652;2024-02-23T00:01:31;6.40;99.90
64951;DHT22;51482;47.014;7.652;2024-02-23T00:03:57;6.00;99.90
64951;DHT22;51482;47.014;7.652;2024-02-23T00:06:22;5.20;99.90
64951;DHT22;51482;47.014;7.652;2024-02-23T00:08:53;5.60;99.90
64951;DHT22;51482;47.014;7.652;2024-02-23T00:11:23;5.50;99.90
64951;DHT22;51482;47.014;7.652;2024-02-23T00:13:49;5.60;99.90
64951;DHT22;51482;47.014;7.652;2024-02-23T00:16:14;5.20;99.90
64951;DHT22;51482;47.014;7.652;2024-02-23T00:18:40;6.00;99.90
64951;DHT22;51482;47.014;7.652;2024-02-23T00:21:05;4.70;99.90
64951;DHT22;51482;47.014;7.652;2024-02-23T00:23:31;5.30;99.90
64951;DHT22;51482;47.014;7.652;2024-02-23T00:25:56;4.80;99.90
64951;DHT22;51482;47.014;7.652;2024-02-23T00:28:22;5.30;99.90
64951;DHT22;51482;47.014;7.652;2024-02-23T00:30:47;5.70;99.90
64951;DHT22;51482;47.014;7.652;2024-02-23T00:33:13;5.10;99.90
64951;DHT22;51482;47.014;7.652;2024-02-23T00:35:39;5.50;99.90
64951;DHT22;51482;47.014;7.652;2024-02-23T00:38:04;5.70;99.90
64951;DHT22;51482;47.014;7.652;2024-02-23T00:40:30;5.50;99.90
64951;DHT22;51482;47.014;7.652;2024-02-23T00:42:56;5.30;99.90
64951;DHT22;51482;47.014;7.652;2024-02-23T00:45:21;4.80;99.90
64951;DHT22;51482;47.014;7.652;2024-02-23T00:47:47;5.30;99.90
64951;DHT22;51482;47.014;7.652;2024-02-23T00:50:13;5.80;99.90
64951;DHT22;51482;47.014;7.652;2024-02-23T00:52:39;5.60;99.90
64951;DHT22;51482;47.014;7.652;2024-02-23T00:55:06;5.30;99.90
64951;DHT22;51482;47.014;7.652;2024-02-23T00:57:33;5.40;99.90
64951;DHT22;51482;47.014;7.652;2024-02-23T00:59:59;5.20;99.90
64951;DHT22;51482;47.014;7.652;2024-02-23T01:02:25;5.10;99.90
64951;DHT22;51482;47.014;7.652;2024-02-23T01:04:50;5.50;99.90
64951;DHT22;51482;47.014;7.652;2024-02-23T01:07:16;5.40;99.90
64951;DHT22;51482;47.014;7.652;2024-02-23T01:09:41;5.50;99.90
64951;DHT22;51482;47.014;7.652;2024-02-23T01:12:07;6.00;99.90
64951;DHT22;51482;47.014;7.652;2024-02-23T01:14:33;5.80;99.90
64951;DHT22;51482;47.014;7.652;2024-02-23T01:16:58;5.40;99.90
64951;DHT22;51482;47.014;7.652;2024-02-23T01:19:24;5.50;99.90
64951;DHT22;51482;47.014;7.652;2024-02-23T01:21:49;5.20;99.90
64951;DHT22;51482;47.014;7.652;2024-02-23T01:24:21;5.10;99.90
64951;DHT22;51482;47.014;7.652;2024-02-23T01:26:47;5.20;99.90
64951;DHT22;51482;47.014;7.652;2024-02-23T01:29:13;5.00;99.90
64951;DHT22;51482;47.014;7.652;2024-02-23T01:31:38;5.00;99.90
64951;DHT22;51482;47.014;7.652;2024-02-23T01:34:04;5.40;99.90
64951;DHT22;51482;47.014;7.652;2024-02-23T01:36:29;4.30;99.90
64951;DHT22;51482;47.014;7.652;2024-02-23T01:38:55;4.90;99.90
64951;DHT22;51482;47.014;7.652;2024-02-23T01:41:20;5.30;99.90
64951;DHT22;51482;47.014;7.652;2024-02-23T01:43:46;5.40;99.90
64951;DHT22;51482;47.014;7.652;2024-02-23T01:46:12;4.80;99.90
64951;DHT22;51482;47.014;7.652;2024-02-23T01:48:38;5.00;99.90
64951;DHT22;51482;47.014;7.652;2024-02-23T01:51:03;4.80;99.90
64951;DHT22;51482;47.014;7.652;2024-02-23T01:53:29;4.80;99.90
64951;DHT22;51482;47.014;7.652;2024-02-23T01:55:56;4.50;99.90
64951;DHT22;51482;47.014;7.652;2024-02-23T01:58:22;4.30;99.90
64951;DHT22;51482;47.014;7.652;2024-02-23T02:00:49;5.10;99.90
64951;DHT22;51482;47.014;7.652;2024-02-23T02:03:14;5.10;99.90
64951;DHT22;51482;47.014;7.652;2024-02-23T02:05:40;4.20;99.90
64951;DHT22;51482;47.014;7.652;2024-02-23T02:08:06;4.70;99.90
64951;DHT22;51482;47.014;7.652;2024-02-23T02:10:31;4.60;99.90
64951;DHT22;51482;47.014;7.652;2024-02-23T02:13:05;4.60;99.90
64951;DHT22;51482;47.014;7.652;2024-02-23T02:15:30;4.80;99.90
64951;DHT22;51482;47.014;7.652;2024-02-23T02:17:56;5.10;99.90
64951;DHT22;51482;47.014;7.652;2024-02-23T02:20:24;5.00;99.90
64951;DHT22;51482;47.014;7.652;2024-02-23T02:22:53;4.50;99.90
64951;DHT22;51482;47.014;7.652;2024-02-23T02:25:19;4.50;99.90
64951;DHT22;51482;47.014;7.652;2024-02-23T02:27:44;4.60;99.90
64951;DHT22;51482;47.014;7.652;2024-02-23T02:30:12;4.40;99.90
64951;DHT22;51482;47.014;7.652;2024-02-23T02:32:37;4.50;99.90
64951;DHT22;51482;47.014;7.652;2024-02-23T02:35:03;4.40;99.90
64951;DHT22;51482;47.014;7.652;2024-02-23T02:37:29;4.80;99.90
64951;DHT22;51482;47.014;7.652;2024-02-23T02:39:54;4.60;99.90
64951;DHT22;51482;47.014;7.652;2024-02-23T02:42:20;4.50;99.90
64951;DHT22;51482;47.014;7.652;2024-02-23T02:44:46;4.60;99.90
64951;DHT22;51482;47.014;7.652;2024-02-23T02:47:11;5.00;99.90
64951;DHT22;51482;47.014;7.652;2024-02-23T02:49:39;4.10;99.90
64951;DHT22;51482;47.014;7.652;2024-02-23T02:52:04;5.20;99.90
64951;DHT22;51482;47.014;7.652;2024-02-23T02:54:30;4.90;99.90
64951;DHT22;51482;47.014;7.652;2024-02-23T02:56:55;4.90;99.90
64951;DHT22;51482;47.014;7.652;2024-02-23T02:59:21;4.60;99.90
64951;DHT22;51482;47.014;7.652;2024-02-23T03:01:47;5.10;99.90
64951;DHT22;51482;47.014;7.652;2024-02-23T03:04:12;5.10;99.90
64951;DHT22;51482;47.014;7.652;2024-02-23T03:06:38;4.60;99.90
64951;DHT22;51482;47.014;7.652;2024-02-23T03:09:03;6.00;99.90
64951;DHT22;51482;47.014;7.652;2024-02-23T03:11:30;4.60;99.90
64951;DHT22;51482;47.014;7.652;2024-02-23T03:13:56;5.20;99.90
64951;DHT22;51482;47.014;7.652;2024-02-23T03:16:21;5.10;99.90
64951;DHT22;51482;47.014;7.652;2024-02-23T03:18:51;5.10;99.90
64951;DHT22;51482;47.014;7.652;2024-02-23T03:21:19;5.30;99.90
64951;DHT22;51482;47.014;7.652;2024-02-23T03:23:45;4.80;99.90
64951;DHT22;51482;47.014;7.652;2024-02-23T03:26:10;5.20;99.90
64951;DHT22;51482;47.014;7.652;2024-02-23T03:28:36;5.00;99.90
64951;DHT22;51482;47.014;7.652;2024-02-23T03:31:02;5.10;99.90
64951;DHT22;51482;47.014;7.652;2024-02-23T03:33:27;4.80;99.90
64951;DHT22;51482;47.014;7.652;2024-02-23T03:35:53;4.10;99.90
64951;DHT22;51482;47.014;7.652;2024-02-23T03:38:18;4.20;99.90
64951;DHT22;51482;47.014;7.652;2024-02-23T03:40:44;5.10;99.90
64951;DHT22;51482;47.014;7.652;2024-02-23T03:43:09;4.80;99.90
64951;DHT22;51482;47.014;7.652;2024-02-23T03:45:35;4.60;99.90
64951;DHT22;51482;47.014;7.652;2024-02-23T03:48:03;4.70;99.90
64951;DHT22;51482;47.014;7.652;2024-02-23T03:50:29;4.70;99.90
64951;DHT22;51482;47.014;7.652;2024-02-23T03:52:55;4.10;99.90
64951;DHT22;51482;47.014;7.652;2024-02-23T03:55:21;4.20;99.90
64951;DHT22;51482;47.014;7.652;2024-02-23T03:57:47;5.00;99.90
64951;DHT22;51482;47.014;7.652;2024-02-23T04:00:13;4.10;99.90
64951;DHT22;51482;47.014;7.652;2024-02-23T04:02:39;4.70;99.90
64951;DHT22;51482;47.014;7.652;2024-02-23T04:05:06;4.20;99.90
64951;DHT22;51482;47.014;7.652;2024-02-23T04:07:32;4.30;99.90
64951;DHT22;51482;47.014;7.652;2024-02-23T04:09:57;4.30;99.90
64951;DHT22;51482;47.014;7.652;2024-02-23T04:12:24;5.00;99.90
64951;DHT22;51482;47.014;7.652;2024-02-23T04:14:50;4.50;99.90
64951;DHT22;51482;47.014;7.652;2024-02-23T04:17:15;5.20;99.90
64951;DHT22;51482;47.014;7.652;2024-02-23T04:19:42;4.70;99.90
64951;DHT22;51482;47.014;7.652;2024-02-23T04:22:08;5.20;99.90
64951;DHT22;51482;47.014;7.652;2024-02-23T04:24:36;3.90;99.90
64951;DHT22;51482;47.014;7.652;2024-02-23T04:27:04;4.40;99.90
64951;DHT22;51482;47.014;7.652;2024-02-23T04:29:29;4.50;99.90
64951;DHT22;51482;47.014;7.652;2024-02-23T04:31:55;4.00;99.90
64951;DHT22;51482;47.014;7.652;2024-02-23T04:34:20;4.00;99.90
64951;DHT22;51482;47.014;7.652;2024-02-23T04:36:46;4.40;99.90
64951;DHT22;51482;47.014;7.652;2024-02-23T04:39:12;4.10;99.90
64951;DHT22;51482;47.014;7.652;2024-02-23T04:41:37;5.10;99.90
64951;DHT22;51482;47.014;7.652;2024-02-23T04:44:03;4.50;99.90
64951;DHT22;51482;47.014;7.652;2024-02-23T04:46:28;4.50;99.90
64951;DHT22;51482;47.014;7.652;2024-02-23T04:48:55;4.50;99.90
64951;DHT22;51482;47.014;7.652;2024-02-23T04:51:20;5.00;99.90
64951;DHT22;51482;47.014;7.652;2024-02-23T04:53:47;4.50;99.90
64951;DHT22;51482;47.014;7.652;2024-02-23T04:56:13;3.90;99.90
64951;DHT22;51482;47.014;7.652;2024-02-23T04:58:38;4.90;99.90
64951;DHT22;51482;47.014;7.652;2024-02-23T05:01:06;4.70;99.90
64951;DHT22;51482;47.014;7.652;2024-02-23T05:03:32;4.50;99.90
64951;DHT22;51482;47.014;7.652;2024-02-23T05:05:57;4.70;99.90
64951;DHT22;51482;47.014;7.652;2024-02-23T05:08:23;4.40;99.90
64951;DHT22;51482;47.014;7.652;2024-02-23T05:10:53;4.40;99.90
64951;DHT22;51482;47.014;7.652;2024-02-23T05:13:18;4.50;99.90
64951;DHT22;51482;47.014;7.652;2024-02-23T05:15:44;4.30;99.90
64951;DHT22;51482;47.014;7.652;2024-02-23T05:18:09;4.80;99.90
64951;DHT22;51482;47.014;7.652;2024-02-23T05:20:35;5.00;99.90
64951;DHT22;51482;47.014;7.652;2024-02-23T05:23:01;4.70;99.90
64951;DHT22;51482;47.014;7.652;2024-02-23T05:25:26;3.70;99.90
64951;DHT22;51482;47.014;7.652;2024-02-23T05:27:52;4.00;99.90
64951;DHT22;51482;47.014;7.652;2024-02-23T05:30:18;4.30;99.90
64951;DHT22;51482;47.014;7.652;2024-02-23T05:32:43;4.70;99.90
64951;DHT22;51482;47.014;7.652;2024-02-23T05:35:09;4.60;99.90
64951;DHT22;51482;47.014;7.652;2024-02-23T05:37:36;4.40;99.90
64951;DHT22;51482;47.014;7.652;2024-02-23T05:40:03;4.20;99.90
64951;DHT22;51482;47.014;7.652;2024-02-23T05:42:32;4.20;99.90
64951;DHT22;51482;47.014;7.652;2024-02-23T05:44:58;4.20;99.90
64951;DHT22;51482;47.014;7.652;2024-02-23T05:47:23;5.30;99.90
64951;DHT22;51482;47.014;7.652;2024-02-23T05:49:50;4.40;99.90
64951;DHT22;51482;47.014;7.652;2024-02-23T05:52:15;4.20;99.90
64951;DHT22;51482;47.014;7.652;2024-02-23T05:54:41;4.80;99.90
64951;DHT22;51482;47.014;7.652;2024-02-23T05:57:06;4.50;99.90
64951;DHT22;51482;47.014;7.652;2024-02-23T05:59:32;4.00;99.90
64951;DHT22;51482;47.014;7.652;2024-02-23T06:01:57;3.90;99.90
64951;DHT22;51482;47.014;7.652;2024-02-23T06:04:23;4.60;99.90
64951;DHT22;51482;47.014;7.652;2024-02-23T06:06:49;3.90;99.90
64951;DHT22;51482;47.014;7.652;2024-02-23T06:09:14;3.70;99.90
64951;DHT22;51482;47.014;7.652;2024-02-23T06:11:41;4.00;99.90
64951;DHT22;51482;47.014;7.652;2024-02-23T06:14:07;4.60;99.90
64951;DHT22;51482;47.014;7.652;2024-02-23T06:16:33;4.50;99.90
64951;DHT22;51482;47.014;7.652;2024-02-23T06:18:58;4.10;99.90
64951;DHT22;51482;47.014;7.652;2024-02-23T06:21:24;3.90;99.90
64951;DHT22;51482;47.014;7.652;2024-02-23T06:23:50;3.40;99.90
64951;DHT22;51482;47.014;7.652;2024-02-23T06:26:15;4.20;99.90
64951;DHT22;51482;47.014;7.652;2024-02-23T06:28:42;4.00;99.90
64951;DHT22;51482;47.014;7.652;2024-02-23T06:31:08;3.50;99.90
64951;DHT22;51482;47.014;7.652;2024-02-23T06:33:34;3.50;99.90
64951;DHT22;51482;47.014;7.652;2024-02-23T06:36:00;3.80;99.90
64951;DHT22;51482;47.014;7.652;2024-02-23T06:38:26;3.10;99.90
64951;DHT22;51482;47.014;7.652;2024-02-23T06:40:52;3.80;99.90
64951;DHT22;51482;47.014;7.652;2024-02-23T06:43:18;3.00;99.90
64951;DHT22;51482;47.014;7.652;2024-02-23T06:45:44;3.20;99.90
64951;DHT22;51482;47.014;7.652;2024-02-23T06:48:10;3.50;99.90
64951;DHT22;51482;47.014;7.652;2024-02-23T06:50:36;2.80;99.90
64951;DHT22;51482;47.014;7.652;2024-02-23T06:53:02;3.50;99.90
64951;DHT22;51482;47.014;7.652;2024-02-23T06:55:28;4.30;99.90
64951;DHT22;51482;47.014;7.652;2024-02-23T06:57:54;3.50;99.90
64951;DHT22;51482;47.014;7.652;2024-02-23T07:00:20;2.70;99.90
64951;DHT22;51482;47.014;7.652;2024-02-23T07:02:47;3.30;99.90
64951;DHT22;51482;47.014;7.652;2024-02-23T07:05:12;2.90;99.90
64951;DHT22;51482;47.014;7.652;2024-02-23T07:07:39;3.30;99.90
64951;DHT22;51482;47.014;7.652;2024-02-23T07:10:06;3.20;99.90
64951;DHT22;51482;47.014;7.652;2024-02-23T07:12:31;3.30;99.90
64951;DHT22;51482;47.014;7.652;2024-02-23T07:14:57;3.70;99.90
64951;DHT22;51482;47.014;7.652;2024-02-23T07:17:23;2.70;99.90
64951;DHT22;51482;47.014;7.652;2024-02-23T07:19:49;3.30;99.90
64951;DHT22;51482;47.014;7.652;2024-02-23T07:22:16;3.50;99.90
64951;DHT22;51482;47.014;7.652;2024-02-23T07:24:43;3.60;99.90
64951;DHT22;51482;47.014;7.652;2024-02-23T07:27:09;3.30;99.90
64951;DHT22;51482;47.014;7.652;2024-02-23T07:29:35;3.50;99.90
64951;DHT22;51482;47.014;7.652;2024-02-23T07:32:01;3.20;99.90
64951;DHT22;51482;47.014;7.652;2024-02-23T07:34:26;3.60;99.90
64951;DHT22;51482;47.014;7.652;2024-02-23T07:36:52;3.90;99.90
64951;DHT22;51482;47.014;7.652;2024-02-23T07:39:19;3.60;99.90
64951;DHT22;51482;47.014;7.652;2024-02-23T07:41:45;3.80;99.90
64951;DHT22;51482;47.014;7.652;2024-02-23T07:44:10;3.40;99.90
64951;DHT22;51482;47.014;7.652;2024-02-23T07:46:36;3.70;99.90
64951;DHT22;51482;47.014;7.652;2024-02-23T07:49:02;3.20;99.90
64951;DHT22;51482;47.014;7.652;2024-02-23T07:51:34;4.00;99.90
64951;DHT22;51482;47.014;7.652;2024-02-23T07:53:59;3.20;99.90
64951;DHT22;51482;47.014;7.652;2024-02-23T07:56:25;3.90;99.90
64951;DHT22;51482;47.014;7.652;2024-02-23T07:58:51;4.50;99.90
64951;DHT22;51482;47.014;7.652;2024-02-23T08:01:16;5.20;99.90
64951;DHT22;51482;47.014;7.652;2024-02-23T08:03:42;5.00;99.90
64951;DHT22;51482;47.014;7.652;2024-02-23T08:06:08;5.40;99.90
64951;DHT22;51482;47.014;7.652;2024-02-23T08:08:33;5.50;99.90
64951;DHT22;51482;47.014;7.652;2024-02-23T08:11:02;5.70;99.90
64951;DHT22;51482;47.014;7.652;2024-02-23T08:13:28;5.30;99.90
64951;DHT22;51482;47.014;7.652;2024-02-23T08:15:53;5.10;99.90
64951;DHT22;51482;47.014;7.652;2024-02-23T08:18:19;5.60;99.90
64951;DHT22;51482;47.014;7.652;2024-02-23T08:20:44;6.30;99.90
64951;DHT22;51482;47.014;7.652;2024-02-23T08:23:10;6.40;99.90
64951;DHT22;51482;47.014;7.652;2024-02-23T08:25:36;6.20;99.90
64951;DHT22;51482;47.014;7.652;2024-02-23T08:28:02;6.30;99.90
64951;DHT22;51482;47.014;7.652;2024-02-23T08:30:27;6.60;99.90
64951;DHT22;51482;47.014;7.652;2024-02-23T08:32:53;6.70;99.90
64951;DHT22;51482;47.014;7.652;2024-02-23T08:35:19;7.60;99.90
64951;DHT22;51482;47.014;7.652;2024-02-23T08:37:44;7.10;99.90
64951;DHT22;51482;47.014;7.652;2024-02-23T08:40:10;8.10;99.90
64951;DHT22;51482;47.014;7.652;2024-02-23T08:42:36;8.60;99.90
64951;DHT22;51482;47.014;7.652;2024-02-23T08:45:02;8.20;99.90
64951;DHT22;51482;47.014;7.652;2024-02-23T08:47:27;8.60;99.90
64951;DHT22;51482;47.014;7.652;2024-02-23T08:49:57;8.60;99.90
64951;DHT22;51482;47.014;7.652;2024-02-23T08:52:23;8.70;99.90
64951;DHT22;51482;47.014;7.652;2024-02-23T08:54:48;8.80;99.90
64951;DHT22;51482;47.014;7.652;2024-02-23T08:57:14;8.90;99.90
64951;DHT22;51482;47.014;7.652;2024-02-23T08:59:47;9.10;99.90
64951;DHT22;51482;47.014;7.652;2024-02-23T09:02:12;9.10;99.90
64951;DHT22;51482;47.014;7.652;2024-02-23T09:04:38;9.10;99.90
64951;DHT22;51482;47.014;7.652;2024-02-23T09:07:04;9.50;99.90
64951;DHT22;51482;47.014;7.652;2024-02-23T09:09:30;9.40;99.90
64951;DHT22;51482;47.014;7.652;2024-02-23T09:11:55;9.20;99.90
64951;DHT22;51482;47.014;7.652;2024-02-23T09:14:21;9.60;99.90
64951;DHT22;51482;47.014;7.652;2024-02-23T09:16:46;9.20;99.90
64951;DHT22;51482;47.014;7.652;2024-02-23T09:19:16;9.10;99.90
64951;DHT22;51482;47.014;7.652;2024-02-23T09:21:41;8.90;99.90
64951;DHT22;51482;47.014;7.652;2024-02-23T09:24:07;8.80;99.90
64951;DHT22;51482;47.014;7.652;2024-02-23T09:26:33;8.80;99.90
64951;DHT22;51482;47.014;7.652;2024-02-23T09:28:58;9.20;99.90
64951;DHT22;51482;47.014;7.652;2024-02-23T09:31:24;9.60;99.90
64951;DHT22;51482;47.014;7.652;2024-02-23T09:33:49;10.10;99.90
64951;DHT22;51482;47.014;7.652;2024-02-23T09:36:17;9.60;99.90
64951;DHT22;51482;47.014;7.652;2024-02-23T09:38:42;10.40;99.90
64951;DHT22;51482;47.014;7.652;2024-02-23T09:41:15;10.20;99.90
64951;DHT22;51482;47.014;7.652;2024-02-23T09:43:44;10.00;99.90
64951;DHT22;51482;47.014;7.652;2024-02-23T09:46:11;10.30;99.90
64951;DHT22;51482;47.014;7.652;2024-02-23T09:48:38;10.20;99.90
64951;DHT22;51482;47.014;7.652;2024-02-23T09:51:05;10.20;99.90
64951;DHT22;51482;47.014;7.652;2024-02-23T09:53:31;10.80;99.90
64951;DHT22;51482;47.014;7.652;2024-02-23T09:55:58;10.80;99.90
64951;DHT22;51482;47.014;7.652;2024-02-23T09:58:25;10.70;99.90
64951;DHT22;51482;47.014;7.652;2024-02-23T10:00:52;11.00;99.90
64951;DHT22;51482;47.014;7.652;2024-02-23T10:03:18;12.10;99.90
64951;DHT22;51482;47.014;7.652;2024-02-23T10:05:43;11.70;99.90
64951;DHT22;51482;47.014;7.652;2024-02-23T10:08:11;12.20;99.90
64951;DHT22;51482;47.014;7.652;2024-02-23T10:10:38;12.30;99.90
64951;DHT22;51482;47.014;7.652;2024-02-23T10:13:03;12.90;99.90
64951;DHT22;51482;47.014;7.652;2024-02-23T10:15:33;12.90;99.90
64951;DHT22;51482;47.014;7.652;2024-02-23T10:17:58;12.40;99.90
64951;DHT22;51482;47.014;7.652;2024-02-23T10:20:24;13.20;99.90
64951;DHT22;51482;47.014;7.652;2024-02-23T10:22:50;12.80;99.90
64951;DHT22;51482;47.014;7.652;2024-02-23T10:25:15;13.30;99.90
64951;DHT22;51482;47.014;7.652;2024-02-23T10:27:41;12.40;99.90
64951;DHT22;51482;47.014;7.652;2024-02-23T10:30:08;12.20;99.90
64951;DHT22;51482;47.014;7.652;2024-02-23T10:32:38;11.80;99.90
64951;DHT22;51482;47.014;7.652;2024-02-23T10:35:10;12.30;99.90
64951;DHT22;51482;47.014;7.652;2024-02-23T10:37:35;11.50;99.90
64951;DHT22;51482;47.014;7.652;2024-02-23T10:40:01;11.30;99.90
64951;DHT22;51482;47.014;7.652;2024-02-23T10:42:33;11.00;99.90
64951;DHT22;51482;47.014;7.652;2024-02-23T10:44:59;10.90;99.90
64951;DHT22;51482;47.014;7.652;2024-02-23T10:47:28;10.80;99.90
64951;DHT22;51482;47.014;7.652;2024-02-23T10:49:56;11.50;99.90
64951;DHT22;51482;47.014;7.652;2024-02-23T10:52:23;11.00;99.90
64951;DHT22;51482;47.014;7.652;2024-02-23T10:54:50;10.70;99.90
64951;DHT22;51482;47.014;7.652;2024-02-23T10:57:17;10.80;99.90
64951;DHT22;51482;47.014;7.652;2024-02-23T10:59:46;11.30;99.90
64951;DHT22;51482;47.014;7.652;2024-02-23T11:02:12;11.60;99.90
64951;DHT22;51482;47.014;7.652;2024-02-23T11:04:41;12.50;99.90
64951;DHT22;51482;47.014;7.652;2024-02-23T11:07:13;12.20;99.90
64951;DHT22;51482;47.014;7.652;2024-02-23T11:09:40;12.80;99.90
64951;DHT22;51482;47.014;7.652;2024-02-23T11:12:06;13.10;99.90
64951;DHT22;51482;47.014;7.652;2024-02-23T11:14:38;13.90;99.90
64951;DHT22;51482;47.014;7.652;2024-02-23T11:17:04;14.90;99.90
64951;DHT22;51482;47.014;7.652;2024-02-23T11:19:38;14.70;97.00
64951;DHT22;51482;47.014;7.652;2024-02-23T11:22:05;14.40;95.40
64951;DHT22;51482;47.014;7.652;2024-02-23T11:24:31;14.90;97.20
64951;DHT22;51482;47.014;7.652;2024-02-23T11:27:01;14.50;93.10
64951;DHT22;51482;47.014;7.652;2024-02-23T11:29:33;15.00;91.60
64951;DHT22;51482;47.014;7.652;2024-02-23T11:32:00;15.40;90.90
64951;DHT22;51482;47.014;7.652;2024-02-23T11:34:28;15.50;84.00
64951;DHT22;51482;47.014;7.652;2024-02-23T11:36:53;15.60;82.00
64951;DHT22;51482;47.014;7.652;2024-02-23T11:39:19;16.00;88.00
64951;DHT22;51482;47.014;7.652;2024-02-23T11:41:48;17.20;85.10
64951;DHT22;51482;47.014;7.652;2024-02-23T11:44:15;16.70;85.80
64951;DHT22;51482;47.014;7.652;2024-02-23T11:46:46;16.80;85.30
64951;DHT22;51482;47.014;7.652;2024-02-23T11:49:12;17.60;79.90
64951;DHT22;51482;47.014;7.652;2024-02-23T11:51:38;17.70;82.50
64951;DHT22;51482;47.014;7.652;2024-02-23T11:54:03;17.00;72.80
64951;DHT22;51482;47.014;7.652;2024-02-23T11:56:29;17.10;69.30
64951;DHT22;51482;47.014;7.652;2024-02-23T11:58:55;16.80;69.00
64951;DHT22;51482;47.014;7.652;2024-02-23T12:01:21;17.40;65.50
64951;DHT22;51482;47.014;7.652;2024-02-23T12:03:47;16.90;63.70
64951;DHT22;51482;47.014;7.652;2024-02-23T12:06:14;16.90;63.20
64951;DHT22;51482;47.014;7.652;2024-02-23T12:08:41;16.70;59.80
64951;DHT22;51482;47.014;7.652;2024-02-23T12:11:08;16.60;64.00
64951;DHT22;51482;47.014;7.652;2024-02-23T12:13:35;16.30;61.00
64951;DHT22;51482;47.014;7.652;2024-02-23T12:16:01;16.20;62.00
64951;DHT22;51482;47.014;7.652;2024-02-23T12:18:28;15.70;59.30
64951;DHT22;51482;47.014;7.652;2024-02-23T12:21:00;15.60;60.00
64951;DHT22;51482;47.014;7.652;2024-02-23T12:23:27;15.70;59.60
64951;DHT22;51482;47.014;7.652;2024-02-23T12:26:02;16.00;57.60
64951;DHT22;51482;47.014;7.652;2024-02-23T12:28:27;16.20;58.20
64951;DHT22;51482;47.014;7.652;2024-02-23T12:31:00;16.90;57.70
64951;DHT22;51482;47.014;7.652;2024-02-23T12:33:29;16.90;58.60
64951;DHT22;51482;47.014;7.652;2024-02-23T12:35:56;16.90;59.40
64951;DHT22;51482;47.014;7.652;2024-02-23T12:38:23;17.20;60.60
64951;DHT22;51482;47.014;7.652;2024-02-23T12:40:48;18.30;60.30
64951;DHT22;51482;47.014;7.652;2024-02-23T12:43:14;17.70;58.50
64951;DHT22;51482;47.014;7.652;2024-02-23T12:45:39;18.00;59.60
64951;DHT22;51482;47.014;7.652;2024-02-23T12:48:06;17.70;56.40
64951;DHT22;51482;47.014;7.652;2024-02-23T12:50:31;18.60;58.60
64951;DHT22;51482;47.014;7.652;2024-02-23T12:52:57;19.40;56.10
64951;DHT22;51482;47.014;7.652;2024-02-23T12:55:23;18.30;57.30
64951;DHT22;51482;47.014;7.652;2024-02-23T12:57:49;17.60;54.90
64951;DHT22;51482;47.014;7.652;2024-02-23T13:00:15;17.50;54.80
64951;DHT22;51482;47.014;7.652;2024-02-23T13:02:41;17.20;54.70
64951;DHT22;51482;47.014;7.652;2024-02-23T13:05:07;16.00;56.60
64951;DHT22;51482;47.014;7.652;2024-02-23T13:07:32;16.70;57.80
64951;DHT22;51482;47.014;7.652;2024-02-23T13:09:58;18.00;59.20
64951;DHT22;51482;47.014;7.652;2024-02-23T13:12:23;18.10;55.80
64951;DHT22;51482;47.014;7.652;2024-02-23T13:14:51;18.00;56.60
64951;DHT22;51482;47.014;7.652;2024-02-23T13:17:16;18.10;55.90
64951;DHT22;51482;47.014;7.652;2024-02-23T13:19:43;18.50;56.30
64951;DHT22;51482;47.014;7.652;2024-02-23T13:22:08;18.10;55.80
64951;DHT22;51482;47.014;7.652;2024-02-23T13:24:34;18.20;56.30
64951;DHT22;51482;47.014;7.652;2024-02-23T13:27:00;17.60;56.60
64951;DHT22;51482;47.014;7.652;2024-02-23T13:29:25;17.40;59.00
64951;DHT22;51482;47.014;7.652;2024-02-23T13:31:51;17.10;56.50
64951;DHT22;51482;47.014;7.652;2024-02-23T13:34:17;16.60;57.20
64951;DHT22;51482;47.014;7.652;2024-02-23T13:36:43;16.70;58.60
64951;DHT22;51482;47.014;7.652;2024-02-23T13:39:09;16.80;58.80
64951;DHT22;51482;47.014;7.652;2024-02-23T13:41:35;16.90;56.90
64951;DHT22;51482;47.014;7.652;2024-02-23T13:44:00;16.80;55.60
64951;DHT22;51482;47.014;7.652;2024-02-23T13:46:26;16.90;55.80
64951;DHT22;51482;47.014;7.652;2024-02-23T13:49:02;17.20;54.90
64951;DHT22;51482;47.014;7.652;2024-02-23T13:51:28;17.70;56.30
64951;DHT22;51482;47.014;7.652;2024-02-23T13:53:54;17.70;55.60
64951;DHT22;51482;47.014;7.652;2024-02-23T13:56:19;18.00;54.10
64951;DHT22;51482;47.014;7.652;2024-02-23T13:58:45;18.30;54.50
64951;DHT22;51482;47.014;7.652;2024-02-23T14:01:11;18.20;54.70
64951;DHT22;51482;47.014;7.652;2024-02-23T14:03:37;18.50;55.10
64951;DHT22;51482;47.014;7.652;2024-02-23T14:06:03;18.60;54.30
64951;DHT22;51482;47.014;7.652;2024-02-23T14:08:28;18.90;55.10
64951;DHT22;51482;47.014;7.652;2024-02-23T14:10:54;18.50;51.60
64951;DHT22;51482;47.014;7.652;2024-02-23T14:13:20;18.60;54.00
64951;DHT22;51482;47.014;7.652;2024-02-23T14:15:45;18.10;53.00
64951;DHT22;51482;47.014;7.652;2024-02-23T14:18:11;17.40;53.40
64951;DHT22;51482;47.014;7.652;2024-02-23T14:20:36;16.90;54.60
64951;DHT22;51482;47.014;7.652;2024-02-23T14:23:02;17.50;55.90
64951;DHT22;51482;47.014;7.652;2024-02-23T14:25:27;17.00;53.90
64951;DHT22;51482;47.014;7.652;2024-02-23T14:27:53;16.90;54.50
64951;DHT22;51482;47.014;7.652;2024-02-23T14:30:20;16.60;54.00
64951;DHT22;51482;47.014;7.652;2024-02-23T14:32:47;16.40;54.30
64951;DHT22;51482;47.014;7.652;2024-02-23T14:35:13;16.90;53.20
64951;DHT22;51482;47.014;7.652;2024-02-23T14:37:38;16.90;53.90
64951;DHT22;51482;47.014;7.652;2024-02-23T14:40:04;17.80;56.70
64951;DHT22;51482;47.014;7.652;2024-02-23T14:42:30;16.80;55.90
64951;DHT22;51482;47.014;7.652;2024-02-23T14:44:56;16.10;55.30
64951;DHT22;51482;47.014;7.652;2024-02-23T14:47:21;15.20;55.10
64951;DHT22;51482;47.014;7.652;2024-02-23T14:49:47;15.30;58.20
64951;DHT22;51482;47.014;7.652;2024-02-23T14:52:14;14.20;57.40
64951;DHT22;51482;47.014;7.652;2024-02-23T14:54:40;13.60;58.20
64951;DHT22;51482;47.014;7.652;2024-02-23T14:57:05;13.20;60.50
64951;DHT22;51482;47.014;7.652;2024-02-23T14:59:31;13.20;60.60
64951;DHT22;51482;47.014;7.652;2024-02-23T15:02:01;13.80;62.00
64951;DHT22;51482;47.014;7.652;2024-02-23T15:04:27;14.10;62.70
64951;DHT22;51482;47.014;7.652;2024-02-23T15:06:52;13.70;63.10
64951;DHT22;51482;47.014;7.652;2024-02-23T15:09:18;13.40;64.70
64951;DHT22;51482;47.014;7.652;2024-02-23T15:11:43;13.00;66.20
64951;DHT22;51482;47.014;7.652;2024-02-23T15:14:09;12.70;67.90
64951;DHT22;51482;47.014;7.652;2024-02-23T15:16:35;12.40;68.50
64951;DHT22;51482;47.014;7.652;2024-02-23T15:19:01;13.30;70.80
64951;DHT22;51482;47.014;7.652;2024-02-23T15:21:27;13.60;68.90
64951;DHT22;51482;47.014;7.652;2024-02-23T15:23:52;13.90;67.40
64951;DHT22;51482;47.014;7.652;2024-02-23T15:26:18;14.60;67.40
64951;DHT22;51482;47.014;7.652;2024-02-23T15:28:44;13.80;67.20
64951;DHT22;51482;47.014;7.652;2024-02-23T15:31:11;13.40;67.90
64951;DHT22;51482;47.014;7.652;2024-02-23T15:33:37;13.10;71.10